Time;durP1;ratioP1;P1;durP2;ratioP2;P2;SDS_P1;SDS_P2;PMS_P1;PMS_P2;Temp;Humidity;BMP_temperature;BMP_pressure;BME280_temperature;BME280_humidity;BME280_pressure;Samples;Min_cycle;Max_cycle;Signal;HPM_P1;HPM_P2
2023/12/25 00:00:04;;;;;;;15.45;2.40;;;11.30;99.90;;;;;;5088780;28;20037;-69
2023/12/25 00:02:32;;;;;;;20.23;2.35;;;11.30;99.90;;;;;;5088392;28;20036;-70
2023/12/25 00:04:58;;;;;;;10.68;2.50;;;11.30;99.90;;;;;;5086372;28;20040;-69
2023/12/25 00:07:24;;;;;;;13.23;1.90;;;11.30;99.90;;;;;;5083739;28;20233;-69
2023/12/25 00:09:50;;;;;;;8.07;1.90;;;11.30;99.90;;;;;;5086499;28;20125;-69
2023/12/25 00:12:17;;;;;;;12.77;1.92;;;11.30;99.90;;;;;;5086444;28;20051;-69
2023/12/25 00:14:46;;;;;;;16.50;2.45;;;11.30;99.90;;;;;;5086354;28;20155;-69
2023/12/25 00:17:14;;;;;;;9.70;1.70;;;11.30;99.90;;;;;;5070689;28;20101;-69
2023/12/25 00:19:41;;;;;;;8.20;1.90;;;11.30;99.90;;;;;;5068835;28;21405;-69
2023/12/25 00:22:07;;;;;;;12.70;1.80;;;11.30;99.90;;;;;;5090341;28;20040;-69
2023/12/25 00:24:33;;;;;;;14.68;2.20;;;11.30;99.90;;;;;;5088181;28;20054;-68
2023/12/25 00:26:59;;;;;;;10.77;1.80;;;11.30;99.90;;;;;;5086516;28;20044;-68
2023/12/25 00:29:25;;;;;;;11.00;1.45;;;11.30;99.90;;;;;;5081146;28;20515;-69
2023/12/25 00:31:51;;;;;;;9.32;1.77;;;11.30;99.90;;;;;;5073253;28;20040;-69
2023/12/25 00:34:17;;;;;;;8.37;1.33;;;11.30;99.90;;;;;;5077692;28;20037;-68
2023/12/25 00:36:42;;;;;;;7.13;1.60;;;11.40;99.90;;;;;;5080022;28;20301;-68
2023/12/25 00:39:08;;;;;;;7.07;1.20;;;11.30;99.90;;;;;;5072672;28;20043;-69
2023/12/25 00:41:33;;;;;;;8.43;1.30;;;11.30;99.90;;;;;;5081684;28;20492;-68
2023/12/25 00:44:02;;;;;;;11.30;1.23;;;11.30;99.90;;;;;;5079593;28;20051;-68
2023/12/25 00:46:27;;;;;;;9.27;1.00;;;11.20;99.90;;;;;;5074579;28;21120;-69
2023/12/25 00:48:53;;;;;;;14.60;2.33;;;11.20;99.90;;;;;;5081629;28;20047;-68
2023/12/25 00:51:19;;;;;;;5.07;1.00;;;11.20;99.90;;;;;;5076877;28;20277;-68
2023/12/25 00:53:44;;;;;;;7.10;1.50;;;11.20;99.90;;;;;;5076763;28;20445;-68
2023/12/25 00:56:10;;;;;;;8.07;1.93;;;11.20;99.90;;;;;;5079823;28;20031;-68
2023/12/25 00:58:35;;;;;;;8.33;1.50;;;11.20;99.90;;;;;;5076801;28;20335;-68
2023/12/25 01:01:01;;;;;;;7.53;1.10;;;11.20;99.90;;;;;;5072979;28;20050;-68
2023/12/25 01:03:27;;;;;;;8.45;1.73;;;11.20;99.90;;;;;;5081657;28;20066;-68
2023/12/25 01:05:53;;;;;;;6.47;1.37;;;11.20;99.90;;;;;;5072414;28;20047;-69
2023/12/25 01:08:18;;;;;;;8.57;1.20;;;11.10;99.90;;;;;;5073496;28;20033;-68
2023/12/25 01:10:44;;;;;;;6.97;1.20;;;11.10;99.90;;;;;;5073671;28;20130;-69
2023/12/25 01:13:09;;;;;;;12.97;1.93;;;11.10;99.90;;;;;;5080325;28;20166;-68
2023/12/25 01:15:35;;;;;;;5.87;1.50;;;11.10;99.90;;;;;;5073121;28;20040;-68
2023/12/25 01:18:01;;;;;;;9.77;0.97;;;11.00;99.90;;;;;;5078697;28;20075;-68
2023/12/25 01:20:26;;;;;;;10.27;1.67;;;11.00;99.90;;;;;;5075790;28;20036;-68
2023/12/25 01:22:52;;;;;;;12.93;1.33;;;11.00;99.90;;;;;;5079376;28;20036;-68
2023/12/25 01:25:17;;;;;;;13.57;1.30;;;11.00;99.90;;;;;;5074153;28;20041;-68
2023/12/25 01:27:43;;;;;;;6.40;1.73;;;10.90;99.90;;;;;;5076094;28;20131;-69
2023/12/25 01:30:14;;;;;;;7.87;1.37;;;10.90;99.90;;;;;;5074714;28;20041;-69
2023/12/25 01:32:40;;;;;;;9.50;1.75;;;10.90;99.90;;;;;;5077937;28;20458;-68
2023/12/25 01:35:06;;;;;;;9.87;1.40;;;10.90;99.90;;;;;;5078309;28;20044;-68
2023/12/25 01:37:31;;;;;;;5.90;1.45;;;10.90;99.90;;;;;;5074187;28;20056;-68
2023/12/25 01:39:57;;;;;;;7.60;1.60;;;10.90;99.90;;;;;;5073415;28;20471;-68
2023/12/25 01:42:23;;;;;;;9.52;1.20;;;10.90;99.90;;;;;;5069523;28;20136;-68
2023/12/25 01:44:48;;;;;;;7.93;1.33;;;10.80;99.90;;;;;;5073239;28;20044;-68
2023/12/25 01:47:18;;;;;;;13.43;1.93;;;10.80;99.90;;;;;;5072657;28;20561;-67
2023/12/25 01:49:44;;;;;;;10.13;1.20;;;10.80;99.90;;;;;;5060930;28;20068;-68
2023/12/25 01:52:10;;;;;;;11.23;2.42;;;10.80;99.90;;;;;;5073872;28;20041;-68
2023/12/25 01:54:37;;;;;;;10.82;1.20;;;10.80;99.90;;;;;;5074802;28;20605;-68
2023/12/25 01:57:06;;;;;;;9.68;1.58;;;10.70;99.90;;;;;;5076091;28;20574;-68
2023/12/25 01:59:35;;;;;;;11.18;1.42;;;10.70;99.90;;;;;;5075218;28;20044;-68
2023/12/25 02:02:01;;;;;;;7.45;1.92;;;10.70;99.90;;;;;;5058926;28;20465;-68
2023/12/25 02:04:27;;;;;;;13.80;1.15;;;10.70;99.90;;;;;;5071841;28;20098;-68
2023/12/25 02:06:54;;;;;;;9.98;1.98;;;10.60;99.90;;;;;;5074822;28;20501;-68
2023/12/25 02:09:20;;;;;;;11.50;1.90;;;10.60;99.90;;;;;;5072286;28;20113;-68
2023/12/25 02:11:45;;;;;;;5.25;1.40;;;10.70;99.90;;;;;;5078470;28;20036;-68
2023/12/25 02:14:15;;;;;;;9.30;1.33;;;10.60;99.90;;;;;;5071590;28;20056;-68
2023/12/25 02:16:41;;;;;;;11.77;1.95;;;10.60;99.90;;;;;;5068567;28;20055;-68
2023/12/25 02:19:34;;;;;;;4.85;1.27;;;10.70;99.90;;;;;;5070543;28;20102;-68
2023/12/25 02:22:00;;;;;;;5.95;1.65;;;10.60;99.90;;;;;;5053277;28;20055;-68
2023/12/25 02:24:30;;;;;;;7.82;1.85;;;10.60;99.90;;;;;;5055635;28;20178;-68
2023/12/25 02:26:56;;;;;;;7.45;0.98;;;10.60;99.90;;;;;;5077922;28;20513;-68
2023/12/25 02:29:21;;;;;;;11.35;2.22;;;10.60;99.90;;;;;;5075185;28;20189;-68
2023/12/25 02:31:48;;;;;;;7.80;1.53;;;10.70;99.90;;;;;;5067951;28;20519;-68
2023/12/25 02:34:14;;;;;;;6.95;1.08;;;10.70;99.90;;;;;;5072587;28;20169;-68
2023/12/25 02:36:40;;;;;;;6.47;1.50;;;10.60;99.90;;;;;;5069226;28;20493;-68
2023/12/25 02:39:05;;;;;;;6.53;1.27;;;10.70;99.90;;;;;;5072961;28;20193;-68
2023/12/25 02:41:31;;;;;;;8.83;1.67;;;10.70;99.90;;;;;;5068097;28;20139;-68
2023/12/25 02:43:57;;;;;;;9.13;1.20;;;10.70;99.90;;;;;;5075434;28;20462;-68
2023/12/25 02:46:23;;;;;;;7.63;1.45;;;10.80;99.90;;;;;;5081326;28;20151;-68
2023/12/25 02:48:49;;;;;;;10.57;1.48;;;10.80;99.90;;;;;;5074709;28;20056;-68
2023/12/25 02:51:16;;;;;;;6.63;1.50;;;10.80;99.90;;;;;;5082622;28;20101;-69
2023/12/25 02:53:42;;;;;;;9.82;1.70;;;10.80;99.90;;;;;;5084258;28;20131;-69
2023/12/25 02:56:11;;;;;;;3.55;1.40;;;10.80;99.90;;;;;;5084166;28;20206;-69
2023/12/25 02:58:37;;;;;;;5.35;1.02;;;10.80;99.90;;;;;;5083233;28;20623;-69
2023/12/25 03:01:04;;;;;;;4.65;1.08;;;10.80;99.90;;;;;;5081102;28;20040;-69
2023/12/25 03:03:31;;;;;;;9.85;1.13;;;10.70;99.90;;;;;;5082509;28;20024;-69
2023/12/25 03:05:57;;;;;;;7.18;1.02;;;10.70;99.90;;;;;;5065760;28;20127;-69
2023/12/25 03:08:24;;;;;;;9.65;1.20;;;10.70;99.90;;;;;;5072903;28;20043;-69
2023/12/25 03:10:50;;;;;;;;;;;10.70;99.90;;;;;;5067572;28;20047;-69
2023/12/25 03:13:16;;;;;;;9.27;1.00;;;10.70;99.90;;;;;;5083038;28;19931;-69
2023/12/25 03:15:42;;;;;;;6.35;1.40;;;10.70;99.90;;;;;;5057993;28;20048;-69
2023/12/25 03:18:09;;;;;;;11.13;1.55;;;10.60;99.90;;;;;;5079676;28;20044;-69
2023/12/25 03:20:35;;;;;;;;;;;10.60;99.90;;;;;;5084286;28;20052;-69
2023/12/25 03:23:04;;;;;;;7.15;1.25;;;10.60;99.90;;;;;;5087511;28;19920;-69
2023/12/25 03:25:31;;;;;;;8.93;1.48;;;10.60;99.90;;;;;;5083660;28;20384;-69
2023/12/25 03:27:57;;;;;;;8.95;1.80;;;10.60;99.90;;;;;;5088666;28;20036;-69
2023/12/25 03:30:23;;;;;;;10.05;1.92;;;10.60;99.90;;;;;;5086423;28;20082;-69
2023/12/25 03:32:50;;;;;;;6.50;1.42;;;10.70;99.90;;;;;;5085213;28;20036;-69
2023/12/25 03:35:16;;;;;;;7.68;1.17;;;10.60;99.90;;;;;;5087617;28;20036;-69
2023/12/25 03:37:42;;;;;;;;;;;10.70;99.90;;;;;;5072184;28;20048;-68
2023/12/25 03:40:09;;;;;;;7.07;0.80;;;10.70;99.90;;;;;;5091423;28;19958;-69
2023/12/25 03:42:35;;;;;;;;;;;10.70;99.90;;;;;;5085799;28;20040;-68
2023/12/25 03:45:01;;;;;;;15.20;2.08;;;10.70;99.90;;;;;;5041609;28;20439;-69
2023/12/25 03:47:30;;;;;;;9.30;1.40;;;10.70;99.90;;;;;;4987265;28;20062;-68
2023/12/25 03:49:55;;;;;;;6.60;0.95;;;10.70;99.90;;;;;;5081312;28;20067;-69
2023/12/25 03:52:24;;;;;;;6.73;1.73;;;10.70;99.90;;;;;;5082997;28;20471;-68
2023/12/25 03:54:49;;;;;;;6.97;1.10;;;10.60;99.90;;;;;;5084687;28;20522;-68
2023/12/25 03:57:15;;;;;;;6.03;1.63;;;10.60;99.90;;;;;;5084771;28;20056;-68
2023/12/25 03:59:41;;;;;;;11.17;1.17;;;10.60;99.90;;;;;;5078501;28;20505;-68
2023/12/25 04:02:06;;;;;;;7.15;2.05;;;10.60;99.90;;;;;;5050040;28;20040;-68
2023/12/25 04:04:32;;;;;;;9.73;1.40;;;10.60;99.90;;;;;;5086538;28;20560;-68
2023/12/25 04:07:00;;;;;;;9.60;1.60;;;10.60;99.90;;;;;;5073752;28;20037;-68
2023/12/25 04:09:26;;;;;;;9.40;1.20;;;10.60;99.90;;;;;;5079652;28;20105;-68
2023/12/25 04:11:52;;;;;;;10.33;1.23;;;10.60;99.90;;;;;;5076547;28;20219;-69
2023/12/25 04:14:17;;;;;;;6.03;1.40;;;10.70;99.90;;;;;;5078510;28;20032;-68
2023/12/25 04:16:43;;;;;;;7.40;1.70;;;10.60;99.90;;;;;;5066772;28;20170;-68
2023/12/25 04:19:08;;;;;;;13.03;2.03;;;10.60;99.90;;;;;;5076279;28;20127;-69
2023/12/25 04:21:34;;;;;;;4.80;1.27;;;10.60;99.90;;;;;;5073137;28;20043;-68
2023/12/25 04:24:01;;;;;;;11.30;2.20;;;10.60;99.90;;;;;;5078056;28;20032;-68
2023/12/25 04:26:27;;;;;;;9.32;1.58;;;10.60;99.90;;;;;;5077463;28;20127;-69
2023/12/25 04:28:53;;;;;;;10.00;1.00;;;10.60;99.90;;;;;;5078027;28;20119;-68
2023/12/25 04:31:19;;;;;;;6.17;1.30;;;10.60;99.90;;;;;;5079604;28;20093;-68
2023/12/25 04:33:47;;;;;;;15.10;2.28;;;10.60;99.90;;;;;;5076130;28;20040;-68
2023/12/25 04:36:13;;;;;;;10.38;1.77;;;10.50;99.90;;;;;;5089730;27;20108;-69
2023/12/25 04:38:39;;;;;;;9.05;1.50;;;10.60;99.90;;;;;;5082406;28;20451;-68
2023/12/25 04:41:08;;;;;;;9.25;1.58;;;10.50;99.90;;;;;;5065587;28;20040;-68
2023/12/25 04:43:34;;;;;;;6.10;1.05;;;10.60;99.90;;;;;;5078086;28;20048;-69
2023/12/25 04:46:02;;;;;;;17.10;1.77;;;10.60;99.90;;;;;;5078142;28;20605;-68
2023/12/25 04:48:30;;;;;;;12.15;1.50;;;10.60;99.90;;;;;;5076554;28;20032;-68
2023/12/25 04:50:57;;;;;;;9.13;1.20;;;10.60;99.90;;;;;;5076067;28;20520;-68
2023/12/25 04:53:25;;;;;;;7.07;2.38;;;10.50;99.90;;;;;;5081997;28;20104;-68
2023/12/25 04:55:51;;;;;;;7.97;1.88;;;10.50;99.90;;;;;;5081804;28;20063;-68
2023/12/25 04:58:16;;;;;;;11.82;1.80;;;10.50;99.90;;;;;;5075764;28;20378;-68
2023/12/25 05:00:42;;;;;;;9.63;1.30;;;10.50;99.90;;;;;;5067724;28;20042;-68
2023/12/25 05:03:08;;;;;;;6.63;1.83;;;10.50;99.90;;;;;;5075276;28;20070;-68
2023/12/25 05:05:34;;;;;;;8.57;1.52;;;10.50;99.90;;;;;;5079620;28;20040;-68
2023/12/25 05:07:59;;;;;;;11.63;1.70;;;10.50;99.90;;;;;;5078266;28;20063;-69
2023/12/25 05:10:25;;;;;;;17.53;1.67;;;10.40;99.90;;;;;;5087278;28;20043;-68
2023/12/25 05:12:50;;;;;;;5.73;1.10;;;10.50;99.90;;;;;;5075347;28;20368;-68
2023/12/25 05:15:16;;;;;;;8.80;2.30;;;10.40;99.90;;;;;;5078979;28;21512;-68
2023/12/25 05:17:41;;;;;;;10.83;1.70;;;10.40;99.90;;;;;;5077925;28;20051;-68
2023/12/25 05:20:08;;;;;;;13.07;1.50;;;10.30;99.90;;;;;;5084080;28;20094;-68
2023/12/25 05:22:33;;;;;;;9.98;1.70;;;10.30;99.90;;;;;;5077522;28;20056;-68
2023/12/25 05:24:59;;;;;;;12.07;1.90;;;10.30;99.90;;;;;;5079263;28;20048;-68
2023/12/25 05:27:25;;;;;;;12.30;1.70;;;10.40;99.90;;;;;;5083237;28;20127;-69
2023/12/25 05:29:50;;;;;;;6.18;1.42;;;10.30;99.90;;;;;;5084985;28;20531;-68
2023/12/25 05:32:16;;;;;;;14.63;1.77;;;10.30;99.90;;;;;;5074515;28;20166;-68
2023/12/25 05:34:41;;;;;;;10.17;1.53;;;10.30;99.90;;;;;;5079449;28;20031;-69
2023/12/25 05:37:07;;;;;;;14.70;1.80;;;10.30;99.90;;;;;;5077776;28;20048;-68
2023/12/25 05:39:32;;;;;;;14.93;1.60;;;10.30;99.90;;;;;;5080214;28;20408;-68
2023/12/25 05:41:58;;;;;;;9.80;2.17;;;10.30;99.90;;;;;;5079431;28;20044;-68
2023/12/25 05:44:24;;;;;;;14.47;1.90;;;10.20;99.90;;;;;;5077702;28;20102;-68
2023/12/25 05:46:49;;;;;;;7.40;1.20;;;10.20;99.90;;;;;;5078970;28;20122;-68
2023/12/25 05:49:15;;;;;;;9.87;2.33;;;10.20;99.90;;;;;;5074136;28;20311;-68
2023/12/25 05:51:41;;;;;;;12.30;2.37;;;10.20;99.90;;;;;;5078969;28;20048;-68
2023/12/25 05:54:09;;;;;;;10.03;1.70;;;10.20;99.90;;;;;;5082977;28;20032;-68
2023/12/25 05:56:35;;;;;;;11.38;1.65;;;10.20;99.90;;;;;;5080287;28;20028;-68
2023/12/25 05:59:00;;;;;;;8.40;1.60;;;10.20;99.90;;;;;;5078186;28;20044;-68
2023/12/25 06:01:26;;;;;;;11.90;2.07;;;10.10;99.90;;;;;;5081487;28;20447;-68
2023/12/25 06:03:51;;;;;;;6.63;1.30;;;10.10;99.90;;;;;;5076083;28;20040;-68
2023/12/25 06:06:17;;;;;;;7.93;1.37;;;10.10;99.90;;;;;;5073767;28;20131;-68
2023/12/25 06:08:46;;;;;;;11.30;1.52;;;10.10;99.90;;;;;;5071984;28;20350;-69
2023/12/25 06:11:11;;;;;;;12.07;1.90;;;10.10;99.90;;;;;;5075913;28;20310;-68
2023/12/25 06:13:37;;;;;;;14.20;2.87;;;10.00;99.90;;;;;;5081281;28;20038;-68
2023/12/25 06:16:06;;;;;;;15.13;1.90;;;10.10;99.90;;;;;;5076005;28;20280;-68
2023/12/25 06:18:32;;;;;;;9.52;2.20;;;10.10;99.90;;;;;;5075119;28;20044;-68
2023/12/25 06:20:57;;;;;;;5.80;1.53;;;10.10;99.90;;;;;;5083890;28;20038;-68
2023/12/25 06:23:23;;;;;;;11.97;2.03;;;10.10;99.90;;;;;;5075697;28;20284;-68
2023/12/25 06:25:50;;;;;;;10.30;1.43;;;10.10;99.90;;;;;;5076854;28;20033;-68
2023/12/25 06:28:16;;;;;;;16.88;1.58;;;10.10;99.90;;;;;;5065225;28;20502;-68
2023/12/25 06:30:41;;;;;;;8.43;1.35;;;10.10;99.90;;;;;;5076358;28;20052;-68
2023/12/25 06:33:07;;;;;;;9.03;2.23;;;10.10;99.90;;;;;;5082791;28;20488;-68
2023/12/25 06:35:33;;;;;;;7.47;1.70;;;10.10;99.90;;;;;;5086670;28;20292;-68
2023/12/25 06:37:58;;;;;;;13.93;1.53;;;10.00;99.90;;;;;;5075828;28;20055;-69
2023/12/25 06:40:24;;;;;;;9.83;1.23;;;10.10;99.90;;;;;;5078085;28;20047;-68
2023/12/25 06:42:49;;;;;;;7.83;1.30;;;10.10;99.90;;;;;;5077481;28;20416;-69
2023/12/25 06:45:15;;;;;;;6.57;2.07;;;10.00;99.90;;;;;;5078670;28;20039;-68
2023/12/25 06:47:41;;;;;;;6.87;1.50;;;10.00;99.90;;;;;;5075105;28;20047;-69
2023/12/25 06:50:09;;;;;;;14.07;1.43;;;10.00;99.90;;;;;;5078290;28;20288;-68
2023/12/25 06:52:35;;;;;;;10.55;2.30;;;10.00;99.90;;;;;;5076342;28;20127;-68
2023/12/25 06:55:01;;;;;;;13.73;2.27;;;9.90;99.90;;;;;;5081630;28;20123;-68
2023/12/25 06:57:29;;;;;;;8.63;1.20;;;9.90;99.90;;;;;;5077557;28;20066;-68
2023/12/25 06:59:57;;;;;;;8.88;1.45;;;9.90;99.90;;;;;;5083075;28;20526;-68
2023/12/25 07:02:23;;;;;;;8.80;1.60;;;9.90;99.90;;;;;;5074533;28;20032;-68
2023/12/25 07:04:48;;;;;;;12.82;1.40;;;9.90;99.90;;;;;;5079653;28;20036;-68
2023/12/25 07:07:14;;;;;;;6.87;1.47;;;9.80;99.90;;;;;;5073116;28;20096;-68
2023/12/25 07:09:42;;;;;;;10.40;1.60;;;9.80;99.90;;;;;;5079979;28;20279;-68
2023/12/25 07:12:08;;;;;;;7.32;1.40;;;9.80;99.90;;;;;;5081683;28;20043;-68
2023/12/25 07:14:33;;;;;;;5.63;1.38;;;9.80;99.90;;;;;;5080127;28;20556;-68
2023/12/25 07:17:00;;;;;;;6.93;1.27;;;9.80;99.90;;;;;;5075503;28;20512;-68
2023/12/25 07:19:25;;;;;;;8.95;1.92;;;9.70;99.90;;;;;;5081995;28;20119;-68
2023/12/25 07:21:51;;;;;;;11.07;1.10;;;9.70;99.90;;;;;;5078695;28;20151;-68
2023/12/25 07:24:17;;;;;;;10.00;1.77;;;9.70;99.90;;;;;;5077913;28;20040;-68
2023/12/25 07:26:42;;;;;;;9.10;2.03;;;9.70;99.90;;;;;;5078571;28;20036;-68
2023/12/25 07:29:08;;;;;;;5.83;1.47;;;9.70;99.90;;;;;;5078566;28;20080;-68
2023/12/25 07:31:34;;;;;;;5.97;1.20;;;9.70;99.90;;;;;;5078189;28;20089;-68
2023/12/25 07:34:03;;;;;;;11.15;1.65;;;9.70;99.90;;;;;;5077533;28;20044;-69
2023/12/25 07:36:29;;;;;;;6.78;1.63;;;9.60;99.90;;;;;;5080638;28;20473;-68
2023/12/25 07:38:54;;;;;;;8.97;1.50;;;9.70;99.90;;;;;;5080052;28;20127;-69
2023/12/25 07:41:23;;;;;;;9.40;1.65;;;9.70;99.90;;;;;;5073028;28;20048;-68
2023/12/25 07:43:48;;;;;;;9.38;2.22;;;9.60;99.90;;;;;;5081886;28;20040;-68
2023/12/25 07:46:14;;;;;;;13.63;2.40;;;9.70;99.90;;;;;;5072657;28;20130;-69
2023/12/25 07:48:39;;;;;;;8.17;1.40;;;9.60;99.90;;;;;;5081286;28;20419;-68
2023/12/25 07:51:05;;;;;;;8.77;1.47;;;9.70;99.90;;;;;;5081942;28;20516;-69
2023/12/25 07:53:30;;;;;;;8.83;1.50;;;9.60;99.90;;;;;;5079963;28;20103;-68
2023/12/25 07:55:56;;;;;;;4.73;1.20;;;9.70;99.90;;;;;;5075061;28;20481;-68
2023/12/25 07:58:22;;;;;;;9.63;2.17;;;9.70;99.90;;;;;;5082213;28;20484;-68
2023/12/25 08:00:48;;;;;;;11.13;1.73;;;9.70;99.90;;;;;;5092130;28;20062;-69
2023/12/25 08:03:13;;;;;;;8.15;1.90;;;9.70;99.90;;;;;;5076395;28;20136;-69
2023/12/25 08:05:39;;;;;;;11.53;2.00;;;9.70;99.90;;;;;;5074102;28;20051;-68
2023/12/25 08:08:08;;;;;;;11.80;2.30;;;9.70;99.90;;;;;;5082652;28;20047;-68
2023/12/25 08:10:34;;;;;;;15.93;2.63;;;9.70;99.90;;;;;;5082119;28;20488;-68
2023/12/25 08:13:01;;;;;;;11.93;2.17;;;9.70;99.90;;;;;;5079395;28;20040;-69
2023/12/25 08:15:28;;;;;;;10.43;1.85;;;9.70;99.90;;;;;;5077986;28;20048;-68
2023/12/25 08:17:54;;;;;;;9.32;1.50;;;9.70;99.90;;;;;;5081820;28;20093;-68
2023/12/25 08:20:20;;;;;;;7.43;1.90;;;9.70;99.90;;;;;;5081080;28;20044;-68
2023/12/25 08:22:45;;;;;;;9.18;1.73;;;9.60;99.90;;;;;;5074940;28;20036;-68
2023/12/25 08:25:11;;;;;;;12.57;1.20;;;9.70;99.90;;;;;;5081851;28;20125;-68
2023/12/25 08:27:37;;;;;;;9.17;2.63;;;9.70;99.90;;;;;;5080674;28;20297;-68
2023/12/25 08:30:04;;;;;;;9.77;1.83;;;9.60;99.90;;;;;;5075885;28;20105;-68
2023/12/25 08:32:30;;;;;;;13.02;2.13;;;9.70;99.90;;;;;;5079770;28;20047;-68
2023/12/25 08:34:55;;;;;;;5.70;1.52;;;9.60;99.90;;;;;;5080802;28;20035;-68
2023/12/25 08:37:24;;;;;;;8.40;2.10;;;9.60;99.90;;;;;;5084155;28;20043;-68
2023/12/25 08:39:50;;;;;;;7.40;2.13;;;9.60;99.90;;;;;;5083115;28;20042;-68
2023/12/25 08:42:15;;;;;;;11.02;1.73;;;9.60;99.90;;;;;;5079259;28;20040;-68
2023/12/25 08:44:42;;;;;;;8.57;1.97;;;9.60;99.90;;;;;;5085104;28;20051;-68
2023/12/25 08:47:07;;;;;;;15.70;2.00;;;9.50;99.90;;;;;;5080004;28;20078;-68
2023/12/25 08:49:35;;;;;;;8.25;1.58;;;9.50;99.90;;;;;;5063264;28;20071;-68
2023/12/25 08:52:00;;;;;;;19.25;2.90;;;9.50;99.90;;;;;;5061634;28;20139;-68
2023/12/25 08:54:27;;;;;;;8.93;1.23;;;9.40;99.90;;;;;;5084328;28;20166;-68
2023/12/25 08:56:53;;;;;;;10.15;1.75;;;9.40;99.90;;;;;;5079232;28;20516;-68
2023/12/25 08:59:18;;;;;;;8.20;1.80;;;9.40;99.90;;;;;;5084760;28;20165;-68
2023/12/25 09:01:44;;;;;;;7.37;1.93;;;9.40;99.90;;;;;;5075635;28;20153;-69
2023/12/25 09:04:09;;;;;;;9.30;1.77;;;9.30;99.90;;;;;;5071385;28;20044;-70
2023/12/25 09:06:35;;;;;;;8.57;1.60;;;9.30;99.90;;;;;;5079225;28;20035;-70
2023/12/25 09:09:01;;;;;;;5.97;1.10;;;9.20;99.90;;;;;;5079038;28;20200;-70
2023/12/25 09:11:27;;;;;;;;;;;9.20;99.90;;;;;;5077256;28;20504;-69
2023/12/25 09:13:53;;;;;;;4.05;1.35;;;9.20;99.90;;;;;;5077757;28;19945;-72
2023/12/25 09:16:18;;;;;;;14.13;1.55;;;9.20;99.90;;;;;;5075470;28;20040;-73
2023/12/25 09:18:44;;;;;;;10.45;1.45;;;9.10;99.90;;;;;;5081659;28;20052;-75
2023/12/25 09:21:10;;;;;;;8.57;1.33;;;9.10;99.90;;;;;;5085713;28;20036;-71
2023/12/25 09:23:36;;;;;;;9.43;1.30;;;9.10;99.90;;;;;;5079023;28;20032;-71
2023/12/25 09:26:01;;;;;;;9.30;1.40;;;9.10;99.90;;;;;;5064086;28;20044;-73
2023/12/25 09:28:27;;;;;;;10.60;2.20;;;9.10;99.90;;;;;;5080538;28;20442;-74
2023/12/25 09:30:53;;;;;;;8.07;1.50;;;9.10;99.90;;;;;;5076361;28;20288;-72
2023/12/25 09:33:19;;;;;;;13.00;2.03;;;9.10;99.90;;;;;;5074636;28;20407;-69
2023/12/25 09:35:45;;;;;;;6.85;2.30;;;9.10;99.90;;;;;;5079310;28;20036;-73
2023/12/25 09:38:10;;;;;;;5.40;1.33;;;9.10;99.90;;;;;;5079111;28;20051;-70
2023/12/25 09:40:36;;;;;;;12.93;2.10;;;9.10;99.90;;;;;;5076622;28;20032;-70
2023/12/25 09:43:02;;;;;;;8.07;1.87;;;9.10;99.90;;;;;;5053356;28;20513;-70
2023/12/25 09:45:37;;;;;;;9.67;2.20;;;9.10;99.90;;;;;;5073572;28;20473;-70
2023/12/25 09:48:03;;;;;;;10.63;3.10;;;9.20;99.90;;;;;;5075553;28;20114;-70
2023/12/25 09:50:31;;;;;;;7.28;2.22;;;9.20;99.90;;;;;;5082285;28;20038;-70
2023/12/25 09:52:57;;;;;;;9.63;2.10;;;9.20;99.90;;;;;;5074696;28;20055;-70
2023/12/25 09:55:22;;;;;;;11.30;2.20;;;9.20;99.90;;;;;;5081840;28;20044;-70
2023/12/25 09:57:50;;;;;;;17.60;2.23;;;9.30;99.90;;;;;;5075866;28;20032;-70
2023/12/25 10:00:19;;;;;;;8.57;1.65;;;9.30;99.90;;;;;;5081598;28;20040;-70
2023/12/25 10:02:46;;;;;;;9.38;2.25;;;9.30;99.90;;;;;;5075867;28;20365;-70
2023/12/25 10:05:12;;;;;;;9.70;2.25;;;9.40;99.90;;;;;;5075653;28;20100;-69
2023/12/25 10:07:38;;;;;;;12.32;2.25;;;9.30;99.90;;;;;;5077829;28;20085;-69
2023/12/25 10:10:05;;;;;;;10.40;1.80;;;9.30;99.90;;;;;;5077481;28;20056;-73
2023/12/25 10:12:30;;;;;;;8.75;1.45;;;9.40;99.90;;;;;;5084395;27;20047;-75
2023/12/25 10:14:56;;;;;;;12.57;1.83;;;9.40;99.90;;;;;;5079956;28;20393;-70
2023/12/25 10:17:22;;;;;;;12.03;1.80;;;9.40;99.90;;;;;;5077904;28;20044;-71
2023/12/25 10:19:54;;;;;;;11.90;1.50;;;9.40;99.90;;;;;;5073486;28;20043;-70
2023/12/25 10:22:38;;;;;;;11.48;1.48;;;9.30;99.90;;;;;;5082880;28;20052;-70
2023/12/25 10:25:12;;;;;;;10.82;1.60;;;9.40;99.90;;;;;;5082553;28;20044;-70
2023/12/25 10:27:42;;;;;;;16.08;3.55;;;9.50;99.90;;;;;;5078364;28;20036;-70
2023/12/25 10:30:21;;;;;;;15.88;2.28;;;9.50;99.90;;;;;;5078915;28;20309;-70
2023/12/25 10:32:47;;;;;;;13.90;2.10;;;9.50;99.90;;;;;;5063288;28;20044;-69
2023/12/25 10:35:18;;;;;;;9.10;2.17;;;9.50;99.90;;;;;;5074795;28;20055;-70
2023/12/25 10:37:45;;;;;;;10.65;1.92;;;9.50;99.90;;;;;;5074129;28;20055;-70
2023/12/25 10:40:24;;;;;;;9.07;2.40;;;9.50;99.90;;;;;;5081069;28;20048;-69
2023/12/25 10:42:52;;;;;;;10.18;2.42;;;9.50;99.90;;;;;;5082232;28;20067;-72
2023/12/25 10:45:31;;;;;;;15.10;3.03;;;9.50;99.90;;;;;;5078080;28;20047;-70
2023/12/25 10:48:05;;;;;;;17.63;2.83;;;9.50;99.90;;;;;;5080154;28;20036;-70
2023/12/25 10:50:39;;;;;;;7.45;1.80;;;9.60;99.90;;;;;;5078736;28;20048;-70
2023/12/25 10:53:05;;;;;;;19.70;2.28;;;9.60;99.90;;;;;;5079391;28;20036;-70
2023/12/25 10:55:40;;;;;;;16.67;2.97;;;9.60;99.90;;;;;;5063453;28;20271;-70
2023/12/25 10:58:08;;;;;;;9.45;2.78;;;9.70;99.90;;;;;;5078318;28;20101;-70
2023/12/25 11:00:36;;;;;;;12.85;2.33;;;9.60;99.90;;;;;;5077485;28;20085;-70
2023/12/25 11:03:03;;;;;;;16.00;1.92;;;9.60;99.90;;;;;;5079439;28;20090;-70
2023/12/25 11:05:31;;;;;;;18.50;3.72;;;9.60;99.90;;;;;;5080530;28;20512;-70
2023/12/25 11:07:58;;;;;;;9.95;2.47;;;9.60;99.90;;;;;;5076258;28;20461;-70
2023/12/25 11:10:25;;;;;;;13.48;3.05;;;9.70;99.90;;;;;;5077439;28;20048;-70
2023/12/25 11:12:51;;;;;;;15.30;2.97;;;9.70;99.90;;;;;;5082086;28;20105;-70
2023/12/25 11:15:17;;;;;;;14.90;3.22;;;9.70;99.90;;;;;;5082441;28;20044;-70
2023/12/25 11:17:43;;;;;;;12.13;1.88;;;9.70;99.90;;;;;;5083246;28;20295;-71
2023/12/25 11:20:12;;;;;;;13.63;2.25;;;9.70;99.90;;;;;;5082587;28;20039;-71
2023/12/25 11:22:40;;;;;;;15.25;2.38;;;9.70;99.90;;;;;;5078318;28;20096;-71
2023/12/25 11:25:14;;;;;;;12.98;2.97;;;9.70;99.90;;;;;;5076467;28;20039;-71
2023/12/25 11:27:41;;;;;;;11.77;2.88;;;9.70;99.90;;;;;;5082715;28;20075;-71
2023/12/25 11:30:11;;;;;;;13.13;2.28;;;9.70;99.90;;;;;;5071299;28;20112;-71
2023/12/25 11:32:38;;;;;;;11.27;2.75;;;9.70;99.90;;;;;;5080163;28;20039;-71
2023/12/25 11:35:04;;;;;;;;;;;9.70;99.90;;;;;;5080290;28;20040;-70
2023/12/25 11:37:30;;;;;;;6.72;2.50;;;9.70;99.90;;;;;;5074452;28;20251;-71
2023/12/25 11:40:01;;;;;;;14.10;2.80;;;9.70;99.90;;;;;;5084344;28;20029;-71
2023/12/25 11:42:27;;;;;;;13.40;2.78;;;9.70;99.90;;;;;;5085010;28;20044;-71
2023/12/25 11:45:00;;;;;;;14.25;2.15;;;9.70;99.90;;;;;;5081207;28;20318;-71
2023/12/25 11:47:48;;;;;;;12.05;1.65;;;9.80;99.90;;;;;;5081658;28;20048;-71
2023/12/25 11:50:14;;;;;;;7.68;1.58;;;9.80;99.90;;;;;;5080621;28;20036;-71
2023/12/25 11:52:46;;;;;;;12.23;3.03;;;9.80;99.90;;;;;;5077063;28;20114;-71
2023/12/25 11:55:19;;;;;;;6.82;1.73;;;9.80;99.90;;;;;;5090279;28;20454;-71
2023/12/25 11:57:45;;;;;;;10.18;2.15;;;9.90;99.90;;;;;;5087085;28;20412;-71
2023/12/25 12:00:15;;;;;;;;;;;9.90;99.90;;;;;;5061502;28;20508;-71
2023/12/25 12:02:41;;;;;;;5.68;2.00;;;10.00;99.90;;;;;;5084996;28;20390;-71
2023/12/25 12:05:07;;;;;;;8.90;2.22;;;10.00;99.90;;;;;;5087474;28;20044;-71
2023/12/25 12:07:33;;;;;;;10.80;2.70;;;10.00;99.90;;;;;;5077098;28;20454;-71
2023/12/25 12:09:59;;;;;;;12.13;3.55;;;10.10;99.90;;;;;;5075677;28;20055;-71
2023/12/25 12:12:25;;;;;;;12.47;4.50;;;10.20;99.90;;;;;;5058874;28;20040;-71
2023/12/25 12:14:51;;;;;;;19.40;6.53;;;10.20;99.90;;;;;;5086863;28;20101;-71
2023/12/25 12:17:17;;;;;;;24.67;10.23;;;10.30;99.90;;;;;;5083016;28;20039;-71
2023/12/25 12:19:44;;;;;;;14.95;4.57;;;10.40;99.90;;;;;;5088341;28;20579;-71
2023/12/25 12:22:10;;;;;;;;;;;10.50;99.90;;;;;;5087371;28;20071;-71
2023/12/25 12:24:36;;;;;;;9.68;4.13;;;10.50;99.90;;;;;;5087002;28;19930;-70
2023/12/25 12:27:10;;;;;;;10.73;2.63;;;10.50;99.90;;;;;;5085291;28;20036;-72
2023/12/25 12:29:38;;;;;;;6.22;1.85;;;10.50;99.90;;;;;;5068588;28;20048;-71
2023/12/25 12:32:06;;;;;;;5.97;1.40;;;10.40;99.90;;;;;;5088763;28;20040;-73
2023/12/25 12:34:35;;;;;;;13.13;2.10;;;10.40;99.90;;;;;;5084650;28;20650;-71
2023/12/25 12:37:05;;;;;;;9.63;1.75;;;10.40;99.90;;;;;;5090157;28;20399;-71
2023/12/25 12:39:38;;;;;;;12.10;2.47;;;10.30;99.90;;;;;;5087036;28;20627;-71
2023/12/25 12:42:12;;;;;;;9.77;4.78;;;10.30;99.90;;;;;;5084469;28;20400;-70
2023/12/25 12:44:38;;;;;;;9.40;2.72;;;10.30;99.90;;;;;;5086578;28;20286;-72